Time;durP1;ratioP1;P1;durP2;ratioP2;P2;SDS_P1;SDS_P2;PMS_P1;PMS_P2;Temp;Humidity;BMP_temperature;BMP_pressure;BME280_temperature;BME280_humidity;BME280_pressure;Samples;Min_cycle;Max_cycle;Signal;HPM_P1;HPM_P2
2022/11/22 00:00:36;;;;;;;5.53;3.58;;;;;;;3.70;74.87;99197.31;1706135;84;21142;-72
2022/11/22 00:03:04;;;;;;;5.72;3.65;;;;;;;3.66;74.78;99193.57;1705019;84;21127;-73
2022/11/22 00:05:31;;;;;;;4.85;3.70;;;;;;;3.63;74.83;99200.13;1704146;84;21059;-72
2022/11/22 00:07:58;;;;;;;5.28;3.52;;;;;;;3.61;74.95;99196.92;1705525;84;21111;-72
2022/11/22 00:10:25;;;;;;;7.08;4.20;;;;;;;3.62;75.02;99204.32;1686523;84;21075;-72
2022/11/22 00:12:53;;;;;;;6.20;4.47;;;;;;;3.62;74.96;99210.42;1706363;84;21809;-73
2022/11/22 00:15:20;;;;;;;5.95;4.00;;;;;;;3.57;74.87;99203.75;1684318;84;21098;-71
2022/11/22 00:17:48;;;;;;;5.80;4.12;;;;;;;3.50;74.81;99203.13;1696543;84;21122;-71
2022/11/22 00:20:14;;;;;;;6.17;4.00;;;;;;;3.41;74.85;99210.66;1703125;84;21574;-72
2022/11/22 00:22:41;;;;;;;6.30;4.00;;;;;;;3.36;74.89;99200.56;1669320;84;21078;-72
2022/11/22 00:25:08;;;;;;;6.60;4.47;;;;;;;3.29;74.88;99207.30;1680997;84;21305;-72
2022/11/22 00:27:36;;;;;;;6.85;4.05;;;;;;;3.25;74.84;99212.80;1695200;84;21119;-71
2022/11/22 00:30:06;;;;;;;6.35;4.30;;;;;;;3.20;74.89;99214.05;1705875;84;21087;-72
2022/11/22 00:32:34;;;;;;;6.72;4.17;;;;;;;3.13;74.92;99215.53;1705792;84;21074;-72
2022/11/22 00:35:01;;;;;;;6.33;3.98;;;;;;;3.08;74.92;99210.69;1704745;84;21597;-72
2022/11/22 00:37:28;;;;;;;7.80;4.15;;;;;;;3.04;74.95;99227.52;1686237;84;21757;-71
2022/11/22 00:39:55;;;;;;;5.80;3.95;;;;;;;2.99;75.00;99223.47;1705461;84;21235;-73
2022/11/22 00:42:22;;;;;;;7.53;4.00;;;;;;;2.97;75.01;99226.36;1702417;84;21055;-73
2022/11/22 00:44:49;;;;;;;5.67;3.83;;;;;;;2.92;75.06;99224.16;1705432;84;21583;-72
2022/11/22 00:47:16;;;;;;;5.05;3.58;;;;;;;2.82;74.91;99226.11;1705555;84;21173;-73
2022/11/22 00:49:43;;;;;;;6.95;4.35;;;;;;;2.78;75.01;99226.30;1699067;84;21908;-72
2022/11/22 00:52:09;;;;;;;5.67;3.60;;;;;;;2.72;75.17;99228.57;1699478;84;21079;-72
2022/11/22 00:54:36;;;;;;;5.60;3.83;;;;;;;2.71;75.14;99223.82;1704612;84;21259;-73
2022/11/22 00:57:02;;;;;;;5.70;4.08;;;;;;;2.68;75.06;99227.45;1694462;84;21515;-73
2022/11/22 00:59:29;;;;;;;5.97;4.25;;;;;;;2.62;74.96;99225.24;1705693;84;21092;-72
2022/11/22 01:01:56;;;;;;;6.12;4.10;;;;;;;2.65;74.98;99222.66;1689535;84;21160;-73
2022/11/22 01:04:22;;;;;;;6.75;4.33;;;;;;;2.68;74.96;99221.66;1702066;84;21099;-72
2022/11/22 01:06:51;;;;;;;6.05;4.20;;;;;;;2.68;74.68;99228.77;1704534;84;21076;-73
2022/11/22 01:09:20;;;;;;;6.65;4.35;;;;;;;2.63;74.51;99232.10;1695505;84;21020;-72
2022/11/22 01:11:47;;;;;;;6.33;3.80;;;;;;;2.58;74.55;99244.69;1702552;84;21071;-73
2022/11/22 01:14:14;;;;;;;6.62;4.05;;;;;;;2.57;74.55;99249.69;1705911;84;21175;-71
2022/11/22 01:16:42;;;;;;;5.10;3.70;;;;;;;2.58;74.57;99253.91;1696570;84;21134;-72
2022/11/22 01:19:09;;;;;;;5.35;3.70;;;;;;;2.61;74.63;99255.28;1700466;83;21047;-71
2022/11/22 01:21:36;;;;;;;5.67;4.00;;;;;;;2.63;74.58;99268.22;1690575;84;21622;-72
2022/11/22 01:24:03;;;;;;;5.15;3.83;;;;;;;2.61;74.48;99265.83;1701659;84;21316;-72
2022/11/22 01:26:32;;;;;;;4.78;3.30;;;;;;;2.62;74.40;99268.73;1703954;84;21586;-72
2022/11/22 01:28:59;;;;;;;4.60;3.25;;;;;;;2.63;74.36;99264.26;1698078;84;21177;-72
2022/11/22 01:31:28;;;;;;;4.60;2.83;;;;;;;2.61;74.19;99271.63;1693271;84;21079;-71
2022/11/22 01:33:57;;;;;;;4.10;2.85;;;;;;;2.58;73.83;99276.84;1698798;84;21119;-71
2022/11/22 01:36:26;;;;;;;4.05;2.80;;;;;;;2.58;73.75;99280.27;1706699;84;21094;-70
2022/11/22 01:38:53;;;;;;;4.60;2.83;;;;;;;2.59;73.72;99280.55;1701925;84;21549;-71
2022/11/22 01:41:19;;;;;;;3.90;2.60;;;;;;;2.65;73.48;99277.50;1705198;84;21066;-71
2022/11/22 01:43:46;;;;;;;4.30;2.70;;;;;;;2.65;73.48;99285.92;1703459;83;21055;-71
2022/11/22 01:46:21;;;;;;;3.58;2.47;;;;;;;2.65;73.17;99288.04;1693282;84;21137;-71
2022/11/22 01:48:53;;;;;;;4.35;2.95;;;;;;;2.65;73.15;99289.88;1691051;84;21499;-70
2022/11/22 01:51:33;;;;;;;3.83;2.60;;;;;;;2.59;72.80;99304.27;1705467;84;21557;-73
2022/11/22 01:54:03;;;;;;;4.47;2.90;;;;;;;2.58;72.68;99275.52;1705795;84;21016;-71
2022/11/22 01:56:31;;;;;;;4.83;3.00;;;;;;;2.55;72.58;99280.74;1703167;83;21681;-71
2022/11/22 01:59:02;;;;;;;4.45;3.20;;;;;;;2.54;72.57;99272.56;1702530;84;21523;-71
2022/11/22 02:01:30;;;;;;;4.20;2.90;;;;;;;2.53;72.29;99283.33;1703256;84;21015;-71
2022/11/22 02:03:57;;;;;;;4.60;3.20;;;;;;;2.50;72.07;99278.52;1682080;84;21153;-71
2022/11/22 02:06:27;;;;;;;4.87;3.22;;;;;;;2.51;71.88;99287.52;1705289;84;21022;-70
2022/11/22 02:09:04;;;;;;;4.67;3.15;;;;;;;2.49;71.65;99297.49;1707177;84;21040;-71
2022/11/22 02:11:32;;;;;;;5.33;3.52;;;;;;;2.35;70.64;99293.54;1708268;84;21056;-71
2022/11/22 02:14:00;;;;;;;4.55;3.12;;;;;;;2.29;70.69;99295.78;1707608;84;21004;-70
2022/11/22 02:16:28;;;;;;;5.10;3.50;;;;;;;2.25;70.62;99306.52;1694363;84;21179;-70
2022/11/22 02:18:55;;;;;;;5.00;3.67;;;;;;;2.23;70.62;99312.52;1695455;84;21083;-71
2022/11/22 02:21:21;;;;;;;6.40;3.83;;;;;;;2.15;70.66;99315.53;1676703;84;21522;-71
2022/11/22 02:23:56;;;;;;;4.92;3.40;;;;;;;2.15;70.88;99332.65;1676053;84;21526;-70
2022/11/22 02:26:27;;;;;;;5.42;3.92;;;;;;;2.16;71.01;99315.80;1706693;84;21086;-70
2022/11/22 02:28:57;;;;;;;4.10;2.92;;;;;;;2.16;70.86;99327.66;1703489;84;21836;-71
2022/11/22 02:31:42;;;;;;;5.95;3.90;;;;;;;2.09;70.71;99329.09;1693474;84;20975;-68
2022/11/22 02:34:10;;;;;;;5.70;3.95;;;;;;;2.04;70.51;99351.36;1697488;84;21156;-70
2022/11/22 02:36:46;;;;;;;6.95;4.70;;;;;;;1.95;70.46;99335.12;1701678;84;21071;-71
2022/11/22 02:39:15;;;;;;;7.12;5.08;;;;;;;1.95;70.55;99337.77;1667164;86;21006;-71
2022/11/22 02:41:43;;;;;;;7.25;5.28;;;;;;;1.97;70.68;99337.52;1672723;84;21930;-71
2022/11/22 02:44:10;;;;;;;7.05;5.40;;;;;;;2.01;70.92;99344.75;1706178;84;21115;-71
2022/11/22 02:46:51;;;;;;;7.47;5.37;;;;;;;2.02;70.79;99348.18;1685827;84;21555;-71
2022/11/22 02:49:21;;;;;;;7.25;5.40;;;;;;;2.04;70.93;99352.19;1677132;85;21040;-70
2022/11/22 02:51:50;;;;;;;7.72;5.28;;;;;;;2.07;70.92;99350.42;1667238;84;21138;-72
2022/11/22 02:54:18;;;;;;;7.72;5.30;;;;;;;2.01;70.33;99340.80;1689244;84;21237;-70
2022/11/22 02:56:47;;;;;;;7.47;5.53;;;;;;;2.00;70.20;99351.03;1698478;84;21012;-71
2022/11/22 02:59:14;;;;;;;8.08;5.70;;;;;;;2.00;70.08;99368.66;1707484;83;21024;-71
2022/11/22 03:01:41;;;;;;;8.55;6.35;;;;;;;2.00;70.12;99364.72;1707770;83;21478;-71
2022/11/22 03:04:23;;;;;;;8.55;6.47;;;;;;;2.00;70.08;99368.66;1706785;84;21027;-71
2022/11/22 03:06:39;;;;;;;8.83;6.15;;;;;;;1.99;69.98;99388.14;1700714;84;21051;-71
2022/11/22 03:09:07;;;;;;;8.65;6.58;;;;;;;1.94;69.84;99373.53;1705568;84;21073;-72
2022/11/22 03:11:34;;;;;;;10.75;6.78;;;;;;;1.93;69.91;99374.05;1689208;83;21570;-70
2022/11/22 03:14:01;;;;;;;8.23;6.35;;;;;;;1.94;70.17;99393.28;1666933;86;21685;-71
2022/11/22 03:16:29;;;;;;;10.00;6.80;;;;;;;1.92;70.00;99390.89;1671030;84;21003;-69
2022/11/22 03:18:56;;;;;;;11.12;7.67;;;;;;;1.91;70.03;99390.61;1703052;84;21893;-71
2022/11/22 03:21:23;;;;;;;9.95;7.22;;;;;;;1.98;70.07;99382.59;1706966;84;20977;-71
2022/11/22 03:23:50;;;;;;;9.00;6.75;;;;;;;1.90;70.04;99381.09;1707853;84;21111;-71
2022/11/22 03:26:16;;;;;;;10.18;6.72;;;;;;;1.82;70.01;99384.08;1707961;84;21586;-73
2022/11/22 03:28:44;;;;;;;9.48;6.60;;;;;;;1.83;70.03;99380.40;1684727;84;21550;-73
2022/11/22 03:31:10;;;;;;;10.90;7.40;;;;;;;1.84;70.05;99379.36;1667368;86;21617;-69
2022/11/22 03:33:38;;;;;;;10.32;7.15;;;;;;;1.85;70.16;99377.83;1686137;84;21008;-70
2022/11/22 03:36:05;;;;;;;9.80;7.40;;;;;;;1.90;70.18;99385.03;1703298;83;21034;-70
2022/11/22 03:38:34;;;;;;;9.68;6.90;;;;;;;1.92;69.98;99397.98;1703159;84;21560;-70
2022/11/22 03:41:01;;;;;;;9.68;7.22;;;;;;;1.92;70.12;99395.36;1703318;84;21029;-69
2022/11/22 03:43:28;;;;;;;10.28;7.42;;;;;;;1.91;70.04;99407.73;1703372;84;21546;-70
2022/11/22 03:45:54;;;;;;;9.68;7.08;;;;;;;1.87;69.81;99402.61;1702556;84;21669;-70
2022/11/22 03:48:22;;;;;;;9.93;7.15;;;;;;;1.89;69.94;99413.72;1701583;84;21491;-69
2022/11/22 03:50:48;;;;;;;9.73;6.85;;;;;;;1.87;69.87;99418.41;1703347;84;21064;-69
2022/11/22 03:53:15;;;;;;;11.10;8.03;;;;;;;1.84;69.69;99445.19;1703427;84;21043;-70
2022/11/22 03:55:42;;;;;;;8.83;6.60;;;;;;;1.80;69.43;99427.73;1704220;83;21425;-71
2022/11/22 03:58:09;;;;;;;9.38;6.47;;;;;;;1.77;69.29;99424.23;1703330;84;21028;-69
2022/11/22 04:00:36;;;;;;;10.48;7.62;;;;;;;1.84;68.93;99431.53;1703301;84;21122;-70
2022/11/22 04:03:03;;;;;;;10.23;7.22;;;;;;;1.83;68.93;99421.21;1690866;84;21826;-70
2022/11/22 04:05:30;;;;;;;10.13;7.17;;;;;;;1.78;68.98;99425.85;1699848;84;20965;-69
2022/11/22 04:07:57;;;;;;;10.43;7.00;;;;;;;1.79;69.09;99415.60;1684047;84;21754;-69
2022/11/22 04:10:24;;;;;;;13.13;8.50;;;;;;;1.74;69.19;99419.94;1707825;84;21080;-70
2022/11/22 04:12:51;;;;;;;10.63;7.12;;;;;;;1.77;69.42;99412.90;1705041;84;21571;-71
2022/11/22 04:15:18;;;;;;;12.88;8.10;;;;;;;1.77;69.32;99420.80;1702846;84;21028;-71
2022/11/22 04:17:45;;;;;;;10.35;7.75;;;;;;;1.80;69.37;99412.45;1703232;84;21672;-70
2022/11/22 04:23:17;;;;;;;10.08;6.47;;;;;;;1.73;68.45;99420.45;1679683;85;21586;-72
2022/11/22 04:25:52;;;;;;;9.33;6.28;;;;;;;1.70;68.52;99435.90;1693349;84;21059;-71
2022/11/22 04:28:22;;;;;;;9.53;5.60;;;;;;;1.68;68.53;99437.45;1703132;84;21059;-71
2022/11/22 04:33:35;;;;;;;9.45;6.97;;;;;;;1.60;68.21;99430.66;1702927;84;22061;-70
2022/11/22 04:36:03;;;;;;;9.73;6.65;;;;;;;1.61;68.53;99445.45;1699184;83;21572;-70
2022/11/22 04:38:30;;;;;;;8.85;6.28;;;;;;;1.58;68.47;99451.65;1668086;84;20987;-70
2022/11/22 04:40:57;;;;;;;8.30;5.92;;;;;;;1.55;68.48;99446.34;1707562;84;21017;-70
2022/11/22 04:46:14;;;;;;;8.65;6.47;;;;;;;1.56;68.67;99445.83;1702043;84;21763;-71
2022/11/22 04:48:40;;;;;;;9.85;6.87;;;;;;;1.63;68.79;99447.33;1690405;84;20994;-71
2022/11/22 04:53:51;;;;;;;11.40;7.80;;;;;;;1.60;68.57;99455.67;1703750;84;21558;-71
2022/11/22 04:56:18;;;;;;;10.40;7.28;;;;;;;1.59;68.61;99465.13;1708078;84;20996;-70
2022/11/22 04:58:45;;;;;;;9.63;6.97;;;;;;;1.62;68.79;99470.73;1703712;84;21166;-70
2022/11/22 05:01:11;;;;;;;10.32;7.22;;;;;;;1.61;68.62;99477.03;1703609;84;21676;-70
2022/11/22 05:03:38;;;;;;;9.55;6.42;;;;;;;1.74;68.56;99476.53;1707758;84;21004;-70
2022/11/22 05:06:05;;;;;;;10.45;7.60;;;;;;;1.71;68.46;99480.92;1706875;84;21078;-69
2022/11/22 05:08:33;;;;;;;10.03;6.90;;;;;;;1.60;68.72;99479.88;1704396;84;20996;-69
2022/11/22 05:11:01;;;;;;;9.70;7.10;;;;;;;1.60;68.78;99490.41;1683015;84;21035;-69
2022/11/22 05:13:36;;;;;;;10.25;7.12;;;;;;;1.61;68.85;99481.47;1667087;86;21020;-70
2022/11/22 05:16:05;;;;;;;10.03;7.35;;;;;;;1.63;68.97;99480.23;1688581;84;21026;-69
2022/11/22 05:18:33;;;;;;;9.70;6.95;;;;;;;1.64;69.09;99490.23;1706913;84;20992;-69
2022/11/22 05:21:13;;;;;;;10.08;6.72;;;;;;;1.69;69.13;99489.06;1707795;84;21056;-69
2022/11/22 05:23:55;;;;;;;9.90;6.65;;;;;;;1.74;69.13;99493.64;1707617;84;21162;-69
2022/11/22 05:26:28;;;;;;;11.33;7.67;;;;;;;1.73;69.17;99496.80;1679486;85;21113;-70
2022/11/22 05:28:56;;;;;;;12.47;8.65;;;;;;;1.71;69.03;99504.62;1702557;84;21491;-70
2022/11/22 05:31:26;;;;;;;13.62;8.85;;;;;;;1.75;69.16;99510.55;1667461;86;21078;-69
2022/11/22 05:33:54;;;;;;;12.78;8.05;;;;;;;1.73;68.95;99510.48;1685467;84;21046;-69
2022/11/22 05:36:21;;;;;;;14.53;9.25;;;;;;;1.75;68.89;99500.53;1695679;84;21563;-69
2022/11/22 05:38:47;;;;;;;12.47;8.60;;;;;;;1.74;68.95;99505.48;1678095;84;21021;-69
2022/11/22 05:41:15;;;;;;;9.23;7.10;;;;;;;1.78;68.99;99514.56;1689641;84;21284;-71
2022/11/22 05:43:42;;;;;;;11.45;8.23;;;;;;;1.75;68.59;99510.55;1700076;84;20981;-70
2022/11/22 05:46:23;;;;;;;10.68;7.58;;;;;;;1.77;68.50;99515.05;1667280;86;21032;-69
2022/11/22 05:48:50;;;;;;;12.20;8.05;;;;;;;1.77;68.51;99511.11;1686670;84;21916;-70
2022/11/22 05:51:18;;;;;;;11.03;6.90;;;;;;;1.82;68.65;99520.98;1703208;83;21700;-70
2022/11/22 05:53:45;;;;;;;8.33;6.45;;;;;;;1.82;68.32;99518.34;1678074;84;21541;-69
2022/11/22 05:56:15;;;;;;;11.57;7.83;;;;;;;1.82;68.25;99527.05;1677937;85;21088;-70
2022/11/22 05:58:42;;;;;;;10.23;7.62;;;;;;;1.86;68.08;99526.08;1677817;84;21076;-70
2022/11/22 06:01:11;;;;;;;9.25;6.42;;;;;;;1.83;67.90;99535.22;1699958;84;21798;-70
2022/11/22 06:03:38;;;;;;;8.95;6.33;;;;;;;1.83;67.85;99546.27;1682825;84;20976;-70
2022/11/22 06:06:05;;;;;;;9.23;6.60;;;;;;;1.85;67.78;99545.03;1686057;84;21319;-70
2022/11/22 06:08:34;;;;;;;11.22;7.15;;;;;;;1.85;67.60;99555.56;1681644;84;21001;-70
2022/11/22 06:11:11;;;;;;;9.23;6.85;;;;;;;1.85;67.39;99557.39;1705513;84;21079;-70
2022/11/22 06:13:39;;;;;;;10.48;7.33;;;;;;;1.84;67.33;99566.30;1703233;84;21593;-70
2022/11/22 06:16:07;;;;;;;10.48;7.40;;;;;;;1.83;67.13;99562.07;1706759;84;21005;-70
2022/11/22 06:18:34;;;;;;;9.70;6.72;;;;;;;1.78;67.10;99562.75;1702158;84;21565;-69
2022/11/22 06:21:04;;;;;;;9.75;6.67;;;;;;;1.77;67.01;99576.92;1702757;83;21004;-70
2022/11/22 06:23:31;;;;;;;9.83;7.17;;;;;;;1.80;66.96;99563.83;1703185;84;21027;-70
2022/11/22 06:26:01;;;;;;;10.28;7.40;;;;;;;1.80;66.71;99578.31;1706832;84;22001;-71
2022/11/22 06:28:32;;;;;;;9.93;7.40;;;;;;;1.80;66.65;99564.63;1703792;83;20952;-69
2022/11/22 06:31:04;;;;;;;9.45;6.83;;;;;;;1.88;66.84;99567.48;1705483;83;21424;-68
2022/11/22 06:33:30;;;;;;;10.10;7.03;;;;;;;1.92;66.66;99580.48;1703722;84;20977;-69
2022/11/22 06:36:06;;;;;;;9.73;7.42;;;;;;;1.92;66.66;99566.52;1699534;84;21004;-69
2022/11/22 06:38:33;;;;;;;10.20;7.65;;;;;;;1.93;66.72;99569.43;1705348;83;21156;-69
2022/11/22 06:41:03;;;;;;;11.03;7.20;;;;;;;1.94;66.61;99573.17;1705431;84;21028;-69
2022/11/22 06:43:32;;;;;;;11.18;7.85;;;;;;;1.94;66.58;99581.07;1704678;84;21035;-69
2022/11/22 06:45:59;;;;;;;11.57;7.55;;;;;;;1.96;66.56;99579.00;1705261;84;21068;-69
2022/11/22 06:48:31;;;;;;;10.55;7.58;;;;;;;1.99;66.57;99587.77;1703085;84;21020;-70
2022/11/22 06:50:59;;;;;;;11.30;7.85;;;;;;;1.99;66.58;99587.77;1673278;84;21201;-70
2022/11/22 06:53:30;;;;;;;11.88;8.13;;;;;;;2.05;66.56;99590.83;1676179;83;21080;-70
2022/11/22 06:56:01;;;;;;;;;;;;;;;1.99;66.72;99590.41;1701984;84;21011;-70
2022/11/22 06:58:28;;;;;;;10.30;7.25;;;;;;;1.99;66.85;99589.09;1703624;84;20138;-70
2022/11/22 07:01:07;;;;;;;13.72;9.33;;;;;;;2.05;66.98;99605.83;1707802;84;21032;-70
2022/11/22 07:03:37;;;;;;;11.22;8.38;;;;;;;2.09;66.94;99601.72;1705873;82;21266;-70
2022/11/22 07:06:06;;;;;;;10.00;7.47;;;;;;;2.02;66.74;99601.81;1679112;85;21036;-70
2022/11/22 07:08:34;;;;;;;11.00;8.20;;;;;;;2.01;66.77;99605.48;1686737;84;21055;-70
2022/11/22 07:11:11;;;;;;;12.07;8.58;;;;;;;2.04;66.80;99607.67;1707736;84;21052;-70
2022/11/22 07:13:38;;;;;;;11.90;8.40;;;;;;;2.09;66.80;99614.89;1702032;84;21711;-70
2022/11/22 07:16:07;;;;;;;13.13;9.40;;;;;;;2.12;66.70;99610.48;1684507;84;21873;-70
2022/11/22 07:18:34;;;;;;;13.00;8.63;;;;;;;2.10;66.59;99609.90;1694918;84;21139;-70
2022/11/22 07:21:07;;;;;;;12.43;8.75;;;;;;;2.07;66.58;99612.98;1702558;84;21076;-70
2022/11/22 07:23:35;;;;;;;11.00;7.50;;;;;;;2.11;66.66;99625.50;1686897;84;21013;-70
2022/11/22 07:26:02;;;;;;;11.43;7.92;;;;;;;2.12;66.44;99615.76;1705562;84;21028;-71
2022/11/22 07:28:29;;;;;;;12.68;8.83;;;;;;;2.10;66.23;99618.59;1688578;84;21156;-69
2022/11/22 07:31:03;;;;;;;10.85;7.65;;;;;;;2.10;66.40;99628.34;1691310;84;21010;-69
2022/11/22 07:33:30;;;;;;;11.63;8.45;;;;;;;2.11;66.58;99623.38;1702484;84;21083;-70
2022/11/22 07:36:08;;;;;;;10.95;7.45;;;;;;;2.15;66.40;99629.00;1680902;84;20993;-70
2022/11/22 07:38:36;;;;;;;11.28;8.20;;;;;;;2.14;66.29;99632.16;1654962;84;21043;-70
2022/11/22 07:41:03;;;;;;;10.78;7.08;;;;;;;2.13;66.28;99629.73;1701329;84;21146;-69
2022/11/22 07:43:30;;;;;;;10.68;7.92;;;;;;;2.20;65.85;99637.81;1696387;84;21023;-70
2022/11/22 07:46:05;;;;;;;11.55;7.85;;;;;;;2.08;65.66;99629.89;1680988;84;21033;-70
2022/11/22 07:48:31;;;;;;;12.60;8.93;;;;;;;2.06;65.86;99637.20;1699584;84;21058;-70
2022/11/22 07:51:07;;;;;;;11.85;7.65;;;;;;;2.08;65.89;99635.68;1703655;83;21593;-71
2022/11/22 07:53:34;;;;;;;11.63;8.33;;;;;;;2.05;65.59;99643.51;1697821;84;21518;-71
2022/11/22 07:56:03;;;;;;;11.40;7.97;;;;;;;2.08;65.69;99643.06;1707888;84;21025;-70
2022/11/22 07:58:31;;;;;;;11.45;8.68;;;;;;;2.10;65.80;99642.31;1704162;84;21536;-70
2022/11/22 08:00:57;;;;;;;11.73;8.68;;;;;;;2.13;65.68;99646.85;1704927;84;21083;-70
2022/11/22 08:03:24;;;;;;;12.88;8.33;;;;;;;2.13;65.64;99653.44;1707845;84;21013;-70
2022/11/22 08:05:50;;;;;;;11.57;8.18;;;;;;;2.08;65.50;99644.38;1707959;84;21111;-70
2022/11/22 08:08:17;;;;;;;10.40;7.90;;;;;;;2.10;65.50;99643.63;1675035;84;21107;-69
2022/11/22 08:10:44;;;;;;;10.48;7.83;;;;;;;2.15;65.46;99656.66;1679351;85;21040;-70
2022/11/22 08:13:11;;;;;;;13.18;9.18;;;;;;;2.12;65.29;99644.73;1679392;85;21640;-72
2022/11/22 08:15:38;;;;;;;12.68;8.78;;;;;;;2.17;65.40;99645.37;1686448;84;21506;-69
2022/11/22 08:18:06;;;;;;;12.80;8.50;;;;;;;2.27;65.54;99642.99;1706637;84;21519;-69
2022/11/22 08:20:34;;;;;;;11.83;7.60;;;;;;;2.38;65.62;99640.92;1678128;84;20961;-70
2022/11/22 08:23:01;;;;;;;11.28;8.70;;;;;;;2.45;65.24;99638.98;1707837;84;21028;-69
2022/11/22 08:25:28;;;;;;;10.93;7.53;;;;;;;2.52;65.03;99633.09;1705014;83;21007;-69
2022/11/22 08:27:55;;;;;;;12.13;8.38;;;;;;;2.56;64.62;99638.19;1703524;84;21607;-70
2022/11/22 08:30:22;;;;;;;11.85;8.60;;;;;;;2.51;64.63;99634.66;1703256;84;21184;-69
2022/11/22 08:32:50;;;;;;;10.58;8.10;;;;;;;2.52;64.73;99640.20;1703303;84;21078;-69
2022/11/22 08:35:17;;;;;;;11.75;8.25;;;;;;;2.56;64.65;99649.26;1705253;84;21475;-68
2022/11/22 08:37:43;;;;;;;12.35;8.50;;;;;;;2.60;64.54;99646.48;1708011;84;21004;-70
2022/11/22 08:40:11;;;;;;;10.80;7.62;;;;;;;2.63;64.50;99654.42;1707899;84;21107;-70
2022/11/22 08:42:39;;;;;;;10.20;7.83;;;;;;;2.55;64.27;99661.64;1707655;84;21072;-69
2022/11/22 08:45:07;;;;;;;13.35;8.98;;;;;;;2.55;64.38;99668.75;1707658;84;21223;-70
2022/11/22 08:47:34;;;;;;;10.95;8.60;;;;;;;2.57;64.56;99668.82;1705709;84;20984;-70
2022/11/22 08:50:01;;;;;;;11.97;8.65;;;;;;;2.64;64.67;99666.08;1703267;82;21067;-70
2022/11/22 08:52:27;;;;;;;12.60;9.70;;;;;;;2.65;64.44;99669.00;1690071;84;20991;-70
2022/11/22 08:54:54;;;;;;;10.93;8.18;;;;;;;2.71;64.60;99666.77;1703115;84;21223;-70
2022/11/22 08:57:21;;;;;;;11.65;8.53;;;;;;;2.80;64.26;99672.53;1703314;84;21038;-70
2022/11/22 08:59:48;;;;;;;11.68;8.58;;;;;;;2.79;64.08;99657.20;1703396;84;21069;-71
2022/11/22 09:02:15;;;;;;;12.40;8.98;;;;;;;2.80;64.20;99664.62;1706211;84;21434;-71
2022/11/22 09:04:41;;;;;;;11.50;8.28;;;;;;;2.91;63.96;99663.81;1707162;84;21674;-71
2022/11/22 09:07:09;;;;;;;13.48;9.55;;;;;;;2.94;63.79;99656.77;1679575;85;21241;-71
2022/11/22 09:09:36;;;;;;;11.57;8.30;;;;;;;2.96;63.82;99662.62;1703497;84;21605;-70
2022/11/22 09:12:04;;;;;;;12.07;8.33;;;;;;;2.98;63.75;99661.86;1707531;84;21568;-70
2022/11/22 09:14:31;;;;;;;11.85;8.75;;;;;;;2.96;63.46;99665.27;1706192;83;21071;-70
2022/11/22 09:16:57;;;;;;;13.65;9.28;;;;;;;2.95;63.35;99662.84;1703285;84;20948;-70
2022/11/22 09:19:24;;;;;;;12.37;9.03;;;;;;;2.92;63.40;99668.57;1704408;84;21789;-71
2022/11/22 09:21:51;;;;;;;12.30;8.93;;;;;;;2.87;63.31;99682.45;1707649;84;21060;-71
2022/11/22 09:24:17;;;;;;;11.83;8.63;;;;;;;2.82;63.32;99679.68;1707664;84;20993;-70
2022/11/22 09:26:44;;;;;;;12.05;8.98;;;;;;;2.76;63.31;99671.36;1670461;84;21083;-70
2022/11/22 09:29:11;;;;;;;11.83;8.63;;;;;;;2.77;63.60;99662.44;1687068;84;21026;-71
2022/11/22 09:31:39;;;;;;;11.93;8.10;;;;;;;2.81;63.64;99668.86;1703377;84;22086;-69
2022/11/22 09:34:06;;;;;;;12.82;9.20;;;;;;;2.56;63.77;99677.73;1703331;84;21066;-71
2022/11/22 09:36:33;;;;;;;12.98;8.58;;;;;;;2.55;64.08;99678.77;1703331;84;21534;-70
2022/11/22 09:39:00;;;;;;;12.45;9.20;;;;;;;2.59;64.26;99681.76;1677131;84;21154;-70
2022/11/22 09:42:03;;;;;;;13.32;9.10;;;;;;;2.58;64.07;99688.87;1707947;84;21051;-71
2022/11/22 09:44:45;;;;;;;12.45;9.10;;;;;;;2.52;64.01;99685.02;1707698;84;21908;-71
2022/11/22 09:47:54;;;;;;;13.20;9.33;;;;;;;2.56;64.35;99680.89;1705738;83;21556;-71
2022/11/22 09:50:29;;;;;;;13.72;9.60;;;;;;;2.67;64.63;99685.92;1698206;84;21064;-70
2022/11/22 09:53:06;;;;;;;12.40;9.48;;;;;;;2.75;64.58;99688.22;1698886;84;21072;-70
2022/11/22 09:55:38;;;;;;;15.20;10.10;;;;;;;2.70;64.00;99686.76;1703408;83;20953;-70
2022/11/22 09:58:28;;;;;;;12.63;9.83;;;;;;;2.60;63.94;99689.98;1693037;84;21836;-70
2022/11/22 10:01:11;;;;;;;13.38;10.25;;;;;;;2.55;64.27;99698.55;1701869;84;21593;-70
2022/11/22 10:04:13;;;;;;;15.28;10.63;;;;;;;2.57;64.41;99703.61;1693766;84;20976;-70
2022/11/22 10:06:42;;;;;;;13.55;9.13;;;;;;;2.61;64.59;99706.08;1694936;84;21034;-71
2022/11/22 10:09:45;;;;;;;12.70;9.30;;;;;;;2.63;64.74;99711.91;1703998;83;21000;-70
2022/11/22 10:12:46;;;;;;;12.88;9.33;;;;;;;2.60;64.71;99707.11;1698986;84;21310;-71
2022/11/22 10:15:45;;;;;;;13.03;9.58;;;;;;;2.61;64.85;99709.23;1708672;83;21474;-71
2022/11/22 10:18:40;;;;;;;12.00;9.13;;;;;;;2.55;64.96;99698.55;1681434;84;21025;-72
2022/11/22 10:21:13;;;;;;;12.18;8.98;;;;;;;2.54;65.20;99696.95;1702416;84;21114;-70
2022/11/22 10:23:41;;;;;;;12.35;9.30;;;;;;;2.53;65.45;99696.66;1701465;84;21030;-70
2022/11/22 10:26:22;;;;;;;11.90;8.65;;;;;;;2.55;65.40;99698.55;1702461;84;21131;-69
2022/11/22 10:29:09;;;;;;;12.68;9.80;;;;;;;2.54;65.48;99694.31;1715916;83;21971;-71
2022/11/22 10:32:18;;;;;;;12.70;8.55;;;;;;;2.53;65.49;99694.03;1711354;83;21004;-71
2022/11/22 10:35:30;;;;;;;14.00;10.35;;;;;;;2.55;65.63;99689.84;1713816;83;21623;-70
2022/11/22 10:38:25;;;;;;;12.93;9.08;;;;;;;2.65;65.87;99689.28;1715707;83;21104;-69
2022/11/22 10:41:34;;;;;;;12.63;9.00;;;;;;;2.75;65.71;99689.53;1713959;83;21277;-70
2022/11/22 10:44:19;;;;;;;14.95;9.83;;;;;;;2.70;65.36;99682.31;1705045;83;21063;-71
2022/11/22 10:47:19;;;;;;;12.43;9.15;;;;;;;2.73;65.57;99692.91;1702714;83;21031;-71
2022/11/22 10:50:17;;;;;;;15.18;10.80;;;;;;;2.79;65.58;99685.41;1690543;83;21040;-71
2022/11/22 10:53:14;;;;;;;12.50;9.45;;;;;;;2.77;65.30;99688.80;1696387;83;21020;-71
2022/11/22 10:56:14;;;;;;;11.35;8.85;;;;;;;2.74;65.24;99693.21;1677587;84;21254;-71
2022/11/22 10:59:20;;;;;;;13.72;9.65;;;;;;;2.69;65.34;99692.55;1691945;83;21024;-71
2022/11/22 11:01:53;;;;;;;12.35;9.58;;;;;;;2.72;65.57;99693.94;1708806;82;21110;-71
2022/11/22 11:04:21;;;;;;;12.78;9.03;;;;;;;2.78;65.53;99693.84;1698860;83;21526;-69
2022/11/22 11:06:55;;;;;;;14.23;9.78;;;;;;;2.84;65.38;99695.30;1706300;83;21085;-71
2022/11/22 11:09:36;;;;;;;13.28;9.38;;;;;;;2.90;65.41;99695.19;1711182;83;21266;-71
2022/11/22 11:12:14;;;;;;;11.95;9.18;;;;;;;2.98;65.39;99691.41;1708855;83;21021;-70
2022/11/22 11:14:45;;;;;;;12.50;8.90;;;;;;;2.99;65.03;99692.48;1706815;83;21082;-69
2022/11/22 11:17:18;;;;;;;12.40;9.13;;;;;;;2.95;64.88;99699.25;1710564;83;20997;-71
2022/11/22 11:19:46;;;;;;;12.25;8.70;;;;;;;2.87;64.79;99694.84;1710214;83;21074;-71
2022/11/22 11:22:20;;;;;;;13.03;9.03;;;;;;;2.83;64.95;99699.77;1701565;83;21132;-70
2022/11/22 11:24:48;;;;;;;11.50;8.30;;;;;;;2.87;65.12;99701.44;1708949;83;21003;-69
2022/11/22 11:27:16;;;;;;;12.73;9.70;;;;;;;2.93;65.10;99709.24;1709728;83;21095;-71
2022/11/22 11:29:49;;;;;;;12.37;9.10;;;;;;;2.96;64.85;99714.55;1691056;84;21024;-71
2022/11/22 11:32:19;;;;;;;12.25;8.60;;;;;;;2.95;64.83;99713.75;1702543;84;21151;-72
2022/11/22 11:35:00;;;;;;;12.00;9.00;;;;;;;3.01;65.04;99715.48;1686044;84;21393;-70
2022/11/22 11:37:37;;;;;;;12.47;9.25;;;;;;;3.01;64.71;99714.17;1693307;84;21558;-71
2022/11/22 11:40:30;;;;;;;14.95;9.95;;;;;;;3.02;64.94;99714.97;1690175;84;21068;-72
2022/11/22 11:43:19;;;;;;;12.90;9.63;;;;;;;3.03;65.07;99708.16;1702473;84;21119;-72
2022/11/22 11:45:45;;;;;;;14.13;8.98;;;;;;;3.01;65.15;99712.85;1702124;84;21553;-71
2022/11/22 11:48:37;;;;;;;13.48;8.90;;;;;;;2.98;65.09;99717.78;1691946;84;21114;-72
2022/11/22 11:51:14;;;;;;;13.35;9.98;;;;;;;2.96;65.25;99715.88;1699630;84;21052;-71
2022/11/22 11:53:44;;;;;;;12.55;8.48;;;;;;;3.33;64.44;99705.94;1688875;84;21023;-71
2022/11/22 11:56:21;;;;;;;11.68;9.13;;;;;;;3.37;64.13;99715.52;1698095;84;21007;-72
2022/11/22 11:58:52;;;;;;;11.65;8.15;;;;;;;3.34;63.93;99712.81;1697637;84;21523;-70
2022/11/22 12:01:19;;;;;;;12.82;9.25;;;;;;;3.33;63.63;99712.53;1657661;85;21279;-70
2022/11/22 12:03:55;;;;;;;12.03;8.90;;;;;;;3.16;63.79;99721.66;1693919;84;21008;-71
2022/11/22 12:06:30;;;;;;;11.80;8.60;;;;;;;3.11;64.05;99719.41;1696679;84;21585;-71